aviador You're here:

KARB Decoded Metar

ANN ARBOR in MI, USA
Report Time2018-01-20 10:53:00
UTC Time2018-01-20 11:12:12
Flight Rules vfr VFR
Wind180° at 07 kt
W.Decomp.*RWY 24: 4.0 kt HW 5.7 kt LCW
RWY 12: 3.0 kt HW 6.3 kt RCW
W.Rank180° ranks 15
Current wind is above 180° avg. (6.3)
Visibility9999 m
Phenomena:N/A
Clouds:N/A
Expected CloudBase > 1,600 ft AGL from Temp-Dew spread
CeilingNone
Temp00°C (ISA -13)
Dew Point-4°C (75% RH)
AAT-5.0°C
QNH1010 hPa
Density Alt-640 ft
Elevation823 ft
Report Wrong Elevation
Raw Report
KARB 201053Z AUTO 18007KT 10SM CLR 00/M04 A2983 RMK AO2 SLP110
T00001044=

Extra information for KARB:More info

Metar Taf Metar & Taf Last 4 Metars F.Rules Stats Wind Profile Meteogram Temp Stats Airport Information Weather charts Add Link Nearby VenuesMetar ALERT Operation Metar Decoded Social comments

AIRNAV info for KARB